Time;durP1;ratioP1;P1;durP2;ratioP2;P2;SDS_P1;SDS_P2;PMS_P1;PMS_P2;Temp;Humidity;BMP_temperature;BMP_pressure;BME280_temperature;BME280_humidity;BME280_pressure;Samples;Min_cycle;Max_cycle;Signal;HPM_P1;HPM_P2
2024/02/21 00:01:07;;;;;;;3.22;0.90;;;;;;;9.42;44.98;99281.63;6203520;22;20016;-72
2024/02/21 00:03:32;;;;;;;3.85;1.08;;;;;;;9.22;45.05;99272.81;6225432;22;20046;-72
2024/02/21 00:06:00;;;;;;;4.28;0.93;;;;;;;9.03;45.34;99247.44;6227521;22;20072;-70
2024/02/21 00:08:26;;;;;;;3.60;1.05;;;;;;;9.11;46.08;99246.84;6227251;22;19999;-72
2024/02/21 00:10:51;;;;;;;3.50;1.10;;;;;;;9.11;47.03;99262.41;6200413;22;20026;-69
2024/02/21 00:13:17;;;;;;;4.40;0.93;;;;;;;9.08;46.73;99258.31;6230467;22;20048;-70
2024/02/21 00:15:42;;;;;;;3.65;1.20;;;;;;;8.96;47.65;99244.53;6254482;22;20007;-70
2024/02/21 00:18:07;;;;;;;3.85;1.10;;;;;;;9.01;47.92;99250.16;6204197;22;20428;-70
2024/02/21 00:20:33;;;;;;;4.50;1.15;;;;;;;8.95;47.24;99237.69;6201367;22;20018;-69
2024/02/21 00:23:00;;;;;;;4.15;1.25;;;;;;;9.02;48.70;99251.00;6203759;22;20055;-70
2024/02/21 00:25:26;;;;;;;4.28;1.20;;;;;;;8.77;48.28;99252.06;6199264;22;20004;-71
2024/02/21 00:27:51;;;;;;;5.22;1.30;;;;;;;8.79;49.17;99247.59;6203710;22;20340;-72
2024/02/21 00:30:17;;;;;;;8.50;2.13;;;;;;;8.59;48.33;99247.31;6202752;22;20389;-72
2024/02/21 00:32:42;;;;;;;6.53;1.67;;;;;;;8.75;49.26;99246.19;6229147;22;20542;-71
2024/02/21 00:35:08;;;;;;;6.40;2.05;;;;;;;8.64;48.15;99255.59;6229290;22;20035;-71
2024/02/21 00:37:35;;;;;;;4.97;1.40;;;;;;;8.69;48.75;99257.84;6226632;22;20004;-71
2024/02/21 00:40:06;;;;;;;4.47;1.40;;;;;;;8.60;48.44;99248.16;6203775;22;20028;-69
2024/02/21 00:42:32;;;;;;;5.43;1.45;;;;;;;8.62;49.27;99259.25;6254242;22;20576;-70
2024/02/21 00:44:58;;;;;;;5.47;1.52;;;;;;;8.66;49.86;99268.44;6229302;22;20073;-69
2024/02/21 00:47:26;;;;;;;5.03;1.40;;;;;;;8.53;50.56;99258.16;6203887;22;20042;-70
2024/02/21 00:49:51;;;;;;;6.25;1.25;;;;;;;8.41;49.97;99257.28;6226747;22;20070;-71
2024/02/21 00:52:19;;;;;;;5.18;1.55;;;;;;;8.38;50.54;99267.91;6230131;22;20781;-70
2024/02/21 00:54:49;;;;;;;5.07;1.45;;;;;;;8.39;50.51;99274.72;6254032;22;20003;-70
2024/02/21 00:57:16;;;;;;;;;;;;;;;8.44;51.18;99271.81;6200760;22;20338;-72
2024/02/21 00:59:42;;;;;;;3.65;1.20;;;;;;;8.36;51.43;99266.34;6222459;22;19935;-71
2024/02/21 01:02:08;;;;;;;4.43;1.20;;;;;;;8.22;50.36;99263.03;6227712;22;20644;-71
2024/02/21 01:04:34;;;;;;;4.32;1.45;;;;;;;8.13;50.33;99268.06;6225537;22;20014;-71
2024/02/21 01:07:00;;;;;;;4.07;1.20;;;;;;;8.17;50.44;99265.13;6226091;22;20494;-72
2024/02/21 01:09:25;;;;;;;4.20;1.40;;;;;;;8.25;50.66;99280.09;6226923;22;20007;-68
2024/02/21 01:11:51;;;;;;;3.65;1.30;;;;;;;8.17;51.18;99283.25;6252082;22;20038;-70
2024/02/21 01:14:16;;;;;;;9.90;2.17;;;;;;;8.05;50.76;99266.88;6229462;22;20035;-71
2024/02/21 01:16:41;;;;;;;6.25;1.83;;;;;;;7.86;52.11;99264.78;6200642;22;20007;-70
2024/02/21 01:19:09;;;;;;;7.00;1.70;;;;;;;7.71;51.72;99263.31;6230585;22;20464;-70
2024/02/21 01:21:35;;;;;;;6.05;1.55;;;;;;;7.79;51.30;99262.75;6225625;22;20015;-71
2024/02/21 01:24:00;;;;;;;5.93;2.20;;;;;;;7.70;52.53;99244.38;6201841;22;20015;-72
2024/02/21 01:26:28;;;;;;;4.80;1.65;;;;;;;7.58;51.76;99228.91;6226604;22;20311;-70
2024/02/21 01:28:53;;;;;;;4.63;1.80;;;;;;;7.78;52.65;99266.28;6224810;22;20479;-73
2024/02/21 01:31:21;;;;;;;4.80;1.65;;;;;;;7.72;51.90;99266.72;6202464;22;20051;-70
2024/02/21 01:33:46;;;;;;;4.85;1.70;;;;;;;7.61;52.74;99251.94;6249743;22;20110;-72
2024/02/21 01:36:15;;;;;;;5.15;1.63;;;;;;;7.53;52.38;99247.31;6256532;22;20801;-70
2024/02/21 01:38:42;;;;;;;7.18;1.90;;;;;;;7.18;53.68;99257.59;6227766;22;20046;-70
2024/02/21 01:41:10;;;;;;;7.75;2.13;;;;;;;7.02;55.00;99248.28;6204644;22;20047;-69
2024/02/21 01:43:36;;;;;;;8.80;2.05;;;;;;;7.02;55.72;99247.47;6225923;22;20007;-69
2024/02/21 01:46:04;;;;;;;5.45;1.70;;;;;;;7.13;55.12;99244.97;6229422;22;20229;-70
2024/02/21 01:48:30;;;;;;;6.15;1.60;;;;;;;7.16;56.34;99210.31;6228932;22;20090;-70
2024/02/21 01:50:56;;;;;;;6.65;1.70;;;;;;;7.41;56.59;99230.94;6201898;22;20508;-70
2024/02/21 01:53:34;;;;;;;5.65;1.65;;;;;;;7.45;55.74;99237.53;6229691;22;20011;-70
2024/02/21 01:56:03;;;;;;;6.30;1.70;;;;;;;7.57;55.61;99251.34;6225372;22;20042;-70
2024/02/21 01:58:29;;;;;;;7.50;2.00;;;;;;;7.49;56.15;99248.50;6224744;22;20015;-70
2024/02/21 02:00:56;;;;;;;6.07;2.10;;;;;;;7.46;55.90;99251.28;6226876;22;20004;-71
2024/02/21 02:03:22;;;;;;;5.28;1.90;;;;;;;7.48;55.31;99255.44;6203320;22;20038;-72
2024/02/21 02:05:49;;;;;;;6.30;1.90;;;;;;;7.44;55.27;99241.03;6225941;22;20008;-73
2024/02/21 02:08:15;;;;;;;5.18;1.98;;;;;;;7.28;55.02;99250.81;6225494;22;20015;-71
2024/02/21 02:10:41;;;;;;;6.22;2.15;;;;;;;7.13;55.77;99248.38;6256361;22;20015;-72
2024/02/21 02:13:06;;;;;;;5.78;1.92;;;;;;;7.16;56.97;99241.34;6229065;22;20145;-70
2024/02/21 02:15:47;;;;;;;6.53;1.92;;;;;;;7.27;56.39;99256.94;6229706;22;20200;-72
2024/02/21 02:18:14;;;;;;;6.75;1.90;;;;;;;7.18;56.71;99261.00;6229504;22;20012;-71
2024/02/21 02:20:44;;;;;;;6.03;1.88;;;;;;;6.71;57.12;99213.41;6201468;22;20102;-72
2024/02/21 02:23:28;;;;;;;6.20;1.83;;;;;;;6.81;57.92;99222.19;6230385;22;20606;-70
2024/02/21 02:25:56;;;;;;;5.93;1.80;;;;;;;7.02;57.79;99271.56;6224228;22;20003;-72
2024/02/21 02:28:21;;;;;;;6.85;2.00;;;;;;;7.02;56.67;99258.63;6228716;22;20067;-72
2024/02/21 02:30:50;;;;;;;5.10;1.65;;;;;;;6.96;56.62;99246.16;6218571;22;20008;-71
2024/02/21 02:33:17;;;;;;;6.65;1.77;;;;;;;6.75;56.92;99271.69;6201229;22;20012;-70
2024/02/21 02:35:43;;;;;;;5.22;1.77;;;;;;;6.66;57.58;99277.50;6227078;22;20038;-73
2024/02/21 02:38:09;;;;;;;6.18;1.85;;;;;;;6.71;58.04;99275.44;6200676;22;20325;-72
2024/02/21 02:40:35;;;;;;;5.00;1.65;;;;;;;6.89;57.73;99283.69;6225797;22;20027;-70
2024/02/21 02:43:01;;;;;;;5.82;1.60;;;;;;;6.82;57.94;99279.88;6200141;22;20772;-72
2024/02/21 02:45:26;;;;;;;5.90;1.95;;;;;;;6.85;57.85;99285.66;6202340;22;20090;-70
2024/02/21 02:47:54;;;;;;;5.47;1.67;;;;;;;6.84;57.96;99270.25;6200685;22;20034;-71
2024/02/21 02:50:19;;;;;;;5.40;1.55;;;;;;;6.88;58.65;99272.53;6204175;22;20505;-71
2024/02/21 02:52:47;;;;;;;4.30;1.27;;;;;;;6.79;57.75;99264.56;6200842;22;20076;-70
2024/02/21 02:55:13;;;;;;;4.82;1.63;;;;;;;6.81;59.27;99263.53;6228912;22;20008;-70
2024/02/21 02:57:38;;;;;;;5.63;1.63;;;;;;;6.92;61.23;99255.06;6227232;22;20004;-70
2024/02/21 03:00:06;;;;;;;4.97;1.40;;;;;;;6.98;61.56;99264.97;6227381;22;20019;-70
2024/02/21 03:02:32;;;;;;;4.00;1.48;;;;;;;6.89;61.71;99245.72;6250599;22;20085;-72
2024/02/21 03:04:59;;;;;;;6.72;1.60;;;;;;;6.46;61.34;99186.66;6224591;22;20387;-73
2024/02/21 03:07:27;;;;;;;5.30;1.70;;;;;;;6.80;61.73;99254.13;6226659;22;20004;-70
2024/02/21 03:09:55;;;;;;;4.90;1.67;;;;;;;6.87;61.41;99232.09;6200935;22;20431;-74
2024/02/21 03:12:27;;;;;;;5.82;1.60;;;;;;;6.90;61.29;99244.00;6229733;22;20342;-70
2024/02/21 03:14:53;;;;;;;5.05;1.40;;;;;;;6.94;60.74;99229.91;6225953;22;20012;-72
2024/02/21 03:17:18;;;;;;;5.72;1.70;;;;;;;6.95;60.78;99234.13;6203929;22;20018;-70
2024/02/21 03:19:44;;;;;;;4.78;1.40;;;;;;;6.90;61.66;99225.91;6227380;22;20071;-70
2024/02/21 03:22:16;;;;;;;3.80;1.30;;;;;;;6.87;62.33;99228.69;6202591;22;20003;-71
2024/02/21 03:24:42;;;;;;;5.43;1.60;;;;;;;6.48;62.26;99174.47;6201045;22;20547;-70
2024/02/21 03:27:08;;;;;;;6.28;1.70;;;;;;;6.71;61.16;99244.41;6200186;22;20844;-72
2024/02/21 03:29:35;;;;;;;5.43;1.75;;;;;;;6.69;60.69;99247.09;6198991;22;20739;-70
2024/02/21 03:32:01;;;;;;;5.97;2.47;;;;;;;6.68;61.31;99249.78;6247794;22;20011;-72
2024/02/21 03:34:31;;;;;;;4.80;1.45;;;;;;;6.47;60.99;99239.97;6220294;22;20084;-71
2024/02/21 03:36:59;;;;;;;5.20;1.42;;;;;;;6.51;60.98;99246.59;6226406;22;20008;-70
2024/02/21 03:39:25;;;;;;;5.40;1.55;;;;;;;6.53;60.98;99237.00;6229950;22;20003;-72
2024/02/21 03:41:51;;;;;;;6.07;1.80;;;;;;;6.54;61.21;99237.81;6202285;22;20023;-70
2024/02/21 03:44:16;;;;;;;4.28;1.52;;;;;;;6.54;60.85;99251.56;6229947;22;20015;-72
2024/02/21 03:46:44;;;;;;;4.88;1.60;;;;;;;6.08;61.53;99209.91;6204353;22;20008;-70
2024/02/21 03:49:14;;;;;;;4.88;1.58;;;;;;;6.21;61.35;99254.63;6203142;22;20015;-72
2024/02/21 03:51:39;;;;;;;5.13;1.50;;;;;;;6.18;62.69;99275.50;6204464;22;20065;-70
2024/02/21 03:54:07;;;;;;;4.32;1.50;;;;;;;6.21;63.05;99280.47;6204053;22;20020;-71
2024/02/21 03:56:32;;;;;;;4.93;1.40;;;;;;;6.17;62.61;99281.59;6226563;22;20696;-71
2024/02/21 03:59:00;;;;;;;6.07;1.55;;;;;;;5.85;63.10;99232.03;6230774;22;20042;-71
2024/02/21 04:01:28;;;;;;;3.75;1.42;;;;;;;6.15;64.15;99283.44;6202532;22;20624;-70
2024/02/21 04:03:56;;;;;;;4.55;1.60;;;;;;;6.05;64.60;99262.56;6201242;22;20095;-72
2024/02/21 04:06:21;;;;;;;4.05;1.40;;;;;;;5.84;66.20;99251.00;6202446;22;20512;-72
2024/02/21 04:08:47;;;;;;;4.45;1.70;;;;;;;5.93;66.93;99266.75;6228776;22;20053;-72
2024/02/21 04:11:12;;;;;;;4.00;1.52;;;;;;;5.53;68.16;99217.69;6231100;22;20015;-71
2024/02/21 04:13:37;;;;;;;4.05;1.33;;;;;;;5.83;70.15;99265.66;6200442;22;20012;-69
2024/02/21 04:16:04;;;;;;;4.70;1.35;;;;;;;5.92;69.98;99256.50;6204746;22;20039;-72
2024/02/21 04:18:32;;;;;;;4.93;1.30;;;;;;;5.93;70.45;99253.84;6203091;22;20019;-69
2024/02/21 04:20:57;;;;;;;5.00;1.50;;;;;;;6.13;70.89;99264.63;6225799;22;20011;-70
2024/02/21 04:23:23;;;;;;;3.55;1.20;;;;;;;6.05;70.31;99272.06;6228547;22;20082;-72
2024/02/21 04:25:50;;;;;;;4.00;1.13;;;;;;;6.08;69.40;99252.03;6200970;22;20395;-71
2024/02/21 04:28:26;;;;;;;4.20;1.20;;;;;;;6.23;68.70;99263.09;6202835;22;20292;-71
2024/02/21 04:30:51;;;;;;;3.75;1.20;;;;;;;6.18;68.61;99235.94;6231683;22;20012;-70
2024/02/21 04:33:19;;;;;;;3.97;1.30;;;;;;;6.32;69.70;99249.59;6227238;22;20015;-69
2024/02/21 04:35:49;;;;;;;5.32;1.85;;;;;;;6.35;69.55;99246.81;6252051;22;20008;-69
2024/02/21 04:38:14;;;;;;;;;;;;;;;6.40;69.46;99259.41;6204613;22;20046;-69
2024/02/21 04:40:40;;;;;;;4.18;1.20;;;;;;;6.12;70.27;99196.66;6228005;22;20407;-70
2024/02/21 04:43:05;;;;;;;5.05;1.70;;;;;;;6.49;70.56;99248.44;6204347;22;20018;-69
2024/02/21 04:45:33;;;;;;;4.15;1.20;;;;;;;6.48;70.00;99253.72;6226191;22;20091;-72
2024/02/21 04:48:01;;;;;;;4.32;1.40;;;;;;;6.39;71.08;99256.91;6205936;22;20057;-69
2024/02/21 04:50:29;;;;;;;5.22;1.50;;;;;;;6.02;71.59;99205.13;6200064;22;20011;-71
2024/02/21 04:52:54;;;;;;;6.65;1.58;;;;;;;6.09;71.08;99199.44;6229903;22;20070;-71
2024/02/21 04:55:19;;;;;;;4.53;1.60;;;;;;;6.00;71.65;99191.50;6200783;22;20680;-72
2024/02/21 04:57:45;;;;;;;7.20;1.50;;;;;;;6.20;73.47;99271.03;6203273;22;20008;-72
2024/02/21 05:00:13;;;;;;;4.55;1.60;;;;;;;6.34;73.05;99270.97;6255129;22;20834;-70
2024/02/21 05:02:38;;;;;;;4.18;1.55;;;;;;;6.27;73.30;99254.22;6228123;22;20003;-71
2024/02/21 05:05:04;;;;;;;3.70;1.25;;;;;;;6.44;73.84;99262.59;6225215;22;20030;-72
2024/02/21 05:07:29;;;;;;;7.85;1.75;;;;;;;6.35;73.17;99257.13;6227935;22;20470;-69
2024/02/21 05:09:57;;;;;;;6.03;1.50;;;;;;;6.23;73.46;99232.13;6204660;22;20099;-71
2024/02/21 05:12:22;;;;;;;4.53;1.70;;;;;;;6.45;73.19;99265.09;6227873;22;20046;-69
2024/02/21 05:14:47;;;;;;;5.28;1.52;;;;;;;6.40;72.36;99279.25;6228197;22;20807;-70
2024/02/21 05:17:13;;;;;;;5.32;1.80;;;;;;;6.27;71.83;99279.22;6203385;22;20015;-70
2024/02/21 05:19:38;;;;;;;4.65;1.50;;;;;;;6.27;71.65;99285.22;6255550;22;20700;-70
2024/02/21 05:22:04;;;;;;;6.85;1.63;;;;;;;6.32;72.51;99288.31;6204844;22;20011;-70
2024/02/21 05:24:29;;;;;;;4.30;1.67;;;;;;;6.18;72.29;99283.22;6202409;22;20747;-72
2024/02/21 05:26:57;;;;;;;5.03;1.70;;;;;;;5.89;72.04;99242.03;6228782;22;20157;-71
2024/02/21 05:29:22;;;;;;;8.35;2.17;;;;;;;5.67;71.64;99242.59;6227278;22;20003;-71
2024/02/21 05:31:53;;;;;;;6.18;2.03;;;;;;;5.98;72.90;99305.19;6202626;22;20019;-69
2024/02/21 05:34:19;;;;;;;4.93;1.80;;;;;;;5.97;73.05;99286.28;6253874;22;20042;-70
2024/02/21 05:36:45;;;;;;;5.63;1.80;;;;;;;6.03;72.44;99281.66;6226054;22;20578;-73
2024/02/21 05:39:14;;;;;;;5.55;2.00;;;;;;;6.08;72.54;99283.00;6257190;22;20061;-72
2024/02/21 05:41:40;;;;;;;4.90;1.88;;;;;;;5.88;73.17;99281.69;6227850;22;20012;-71
2024/02/21 05:44:06;;;;;;;6.72;2.42;;;;;;;5.91;73.39;99272.91;6202024;22;20123;-71
2024/02/21 05:46:34;;;;;;;8.98;1.90;;;;;;;5.96;73.51;99278.63;6226196;22;20007;-72
2024/02/21 05:49:01;;;;;;;5.45;2.05;;;;;;;6.03;73.34;99271.34;6202593;22;20031;-70
2024/02/21 05:51:27;;;;;;;5.53;1.90;;;;;;;6.08;73.83;99269.28;6224055;22;20595;-72
2024/02/21 05:53:54;;;;;;;8.00;1.80;;;;;;;6.07;73.54;99273.59;6255195;22;20061;-69
2024/02/21 05:56:20;;;;;;;5.43;1.90;;;;;;;6.04;72.83;99271.25;6225762;22;20282;-70
2024/02/21 05:58:48;;;;;;;5.85;1.70;;;;;;;6.18;72.26;99267.75;6229168;22;20577;-73
2024/02/21 06:01:16;;;;;;;6.10;1.60;;;;;;;5.89;72.89;99207.66;6192524;22;20008;-72
2024/02/21 06:03:41;;;;;;;5.65;1.75;;;;;;;6.33;72.91;99255.56;6225010;22;20027;-72
2024/02/21 06:06:06;;;;;;;4.57;1.60;;;;;;;6.04;73.04;99211.84;6199776;22;20675;-71
2024/02/21 06:08:34;;;;;;;5.57;1.92;;;;;;;6.29;71.86;99259.28;6200347;22;20562;-73
2024/02/21 06:11:02;;;;;;;5.20;1.60;;;;;;;6.22;72.08;99243.34;6198140;22;20613;-73
2024/02/21 06:13:30;;;;;;;6.20;1.70;;;;;;;6.17;72.12;99253.19;6226252;22;20274;-73
2024/02/21 06:15:58;;;;;;;5.47;1.92;;;;;;;6.19;72.31;99248.75;6227626;22;20014;-71
2024/02/21 06:18:23;;;;;;;5.97;1.77;;;;;;;6.28;72.70;99244.72;6198717;22;20007;-71
2024/02/21 06:20:48;;;;;;;8.80;1.80;;;;;;;6.25;72.45;99248.34;6226709;22;20004;-71
2024/02/21 06:23:16;;;;;;;6.28;1.80;;;;;;;6.17;73.39;99240.28;6200037;22;20069;-70
2024/02/21 06:25:47;;;;;;;5.35;1.77;;;;;;;6.32;72.42;99264.25;6195326;22;20019;-73
2024/02/21 06:28:13;;;;;;;5.97;1.90;;;;;;;5.95;72.07;99223.63;6200922;22;20103;-70
2024/02/21 06:30:40;;;;;;;6.10;2.10;;;;;;;6.12;72.74;99271.56;6216746;22;21008;-73
2024/02/21 06:33:07;;;;;;;5.55;1.70;;;;;;;6.14;73.22;99279.19;6201366;22;20103;-71
2024/02/21 06:35:35;;;;;;;6.95;2.22;;;;;;;6.28;72.85;99291.19;6214798;22;20039;-73
2024/02/21 06:38:01;;;;;;;4.93;1.70;;;;;;;6.38;72.34;99294.84;6225604;22;20022;-72
2024/02/21 06:40:29;;;;;;;6.15;2.22;;;;;;;6.35;72.11;99289.88;6223801;22;20415;-71
2024/02/21 06:42:54;;;;;;;6.50;2.13;;;;;;;6.37;72.11;99289.78;6226676;22;20070;-70
2024/02/21 06:45:19;;;;;;;8.23;2.53;;;;;;;6.41;72.54;99297.22;6227018;22;20395;-72
2024/02/21 06:47:47;;;;;;;11.05;3.90;;;;;;;6.44;72.54;99304.75;6224315;22;20782;-73
2024/02/21 06:50:14;;;;;;;8.50;2.92;;;;;;;6.41;72.41;99301.56;6221474;22;20003;-75
2024/02/21 06:52:40;;;;;;;10.93;2.90;;;;;;;6.44;72.18;99311.69;6222839;22;20011;-71
2024/02/21 06:55:05;;;;;;;8.65;3.25;;;;;;;6.39;73.30;99308.56;6226590;22;20011;-73
2024/02/21 06:57:33;;;;;;;6.72;2.67;;;;;;;6.08;74.07;99269.28;6196705;22;20508;-73
2024/02/21 06:59:58;;;;;;;8.35;2.70;;;;;;;6.41;74.21;99311.91;6201863;22;20014;-72
2024/02/21 07:02:24;;;;;;;7.68;2.88;;;;;;;6.47;74.20;99311.50;6225889;22;20012;-71
2024/02/21 07:04:52;;;;;;;5.20;2.13;;;;;;;6.47;73.74;99314.06;6225494;22;20482;-74
2024/02/21 07:07:20;;;;;;;5.35;2.00;;;;;;;6.49;74.19;99315.63;6227863;22;20008;-72
2024/02/21 07:09:48;;;;;;;6.13;1.70;;;;;;;6.48;72.70;99315.72;6228930;22;20007;-71
2024/02/21 07:12:13;;;;;;;5.93;1.63;;;;;;;6.60;72.90;99303.75;6199633;22;20007;-70
2024/02/21 07:14:39;;;;;;;5.63;1.60;;;;;;;6.39;73.79;99249.16;6228627;22;20554;-70
2024/02/21 07:17:06;;;;;;;5.22;1.60;;;;;;;6.75;74.80;99302.72;6255111;22;20125;-71
2024/02/21 07:19:32;;;;;;;5.63;1.70;;;;;;;6.70;74.30;99313.38;6199779;22;20042;-73
2024/02/21 07:21:57;;;;;;;3.80;1.40;;;;;;;6.50;72.14;99324.22;6201689;22;20580;-74
2024/02/21 07:24:23;;;;;;;7.57;1.63;;;;;;;6.55;73.82;99335.06;6228939;22;20329;-72
2024/02/21 07:26:48;;;;;;;9.95;1.40;;;;;;;6.63;73.61;99345.72;6199893;22;20011;-71
2024/02/21 07:29:16;;;;;;;5.20;1.40;;;;;;;6.59;73.31;99333.94;6205398;22;20094;-69
2024/02/21 07:31:42;;;;;;;5.32;1.40;;;;;;;6.67;73.76;99354.09;6201887;22;20011;-70
2024/02/21 07:34:10;;;;;;;3.90;1.35;;;;;;;6.64;73.66;99357.69;6227617;22;20031;-72
2024/02/21 07:36:37;;;;;;;4.28;1.30;;;;;;;6.74;74.75;99355.34;6254382;22;20011;-72
2024/02/21 07:39:04;;;;;;;5.82;1.60;;;;;;;6.90;74.79;99352.59;6226770;22;20011;-72
2024/02/21 07:41:30;;;;;;;6.72;1.60;;;;;;;7.00;74.61;99355.38;6227527;22;20023;-69
2024/02/21 07:43:58;;;;;;;3.88;1.40;;;;;;;6.98;74.89;99362.41;6250146;22;20011;-69
2024/02/21 07:46:26;;;;;;;5.50;1.50;;;;;;;6.46;73.88;99309.81;6204334;22;20020;-71
2024/02/21 07:48:54;;;;;;;6.80;1.42;;;;;;;6.64;74.19;99357.69;6225402;22;20047;-74
2024/02/21 07:51:19;;;;;;;3.63;1.20;;;;;;;6.83;74.18;99361.69;6203817;22;20090;-71
2024/02/21 07:53:46;;;;;;;4.95;1.10;;;;;;;6.97;75.19;99361.56;6200711;22;20093;-71
2024/02/21 07:56:12;;;;;;;4.50;1.40;;;;;;;6.99;74.46;99364.88;6227645;22;20086;-69
2024/02/21 07:58:37;;;;;;;4.25;1.50;;;;;;;6.94;72.49;99333.34;6228803;22;20008;-72
2024/02/21 08:01:05;;;;;;;4.38;1.25;;;;;;;7.13;71.42;99357.00;6202884;22;20018;-70
2024/02/21 08:03:30;;;;;;;4.00;1.52;;;;;;;7.11;73.28;99343.34;6204167;22;20007;-71
2024/02/21 08:05:56;;;;;;;6.55;1.33;;;;;;;6.96;72.88;99305.63;6226353;22;20023;-73
2024/02/21 08:08:21;;;;;;;3.90;1.25;;;;;;;7.15;72.27;99331.03;6203792;22;20016;-73
2024/02/21 08:10:52;;;;;;;10.32;1.50;;;;;;;7.23;73.25;99325.34;6228266;22;20014;-69
2024/02/21 08:13:18;;;;;;;4.13;1.50;;;;;;;7.05;73.33;99286.88;6228113;22;20007;-71
2024/02/21 08:15:43;;;;;;;4.45;1.20;;;;;;;7.24;73.75;99329.56;6200605;22;20115;-72
2024/02/21 08:18:09;;;;;;;4.05;1.33;;;;;;;7.21;73.41;99328.03;6197703;22;20007;-72
2024/02/21 08:20:34;;;;;;;5.03;1.35;;;;;;;6.92;72.84;99263.63;6204276;22;20015;-73
2024/02/21 08:23:00;;;;;;;4.50;1.45;;;;;;;7.19;74.04;99310.97;6204692;22;20114;-70
2024/02/21 08:25:25;;;;;;;4.20;1.40;;;;;;;7.33;72.49;99321.19;6202779;22;20007;-72
2024/02/21 08:27:54;;;;;;;4.30;1.65;;;;;;;7.29;73.24;99324.91;6228312;22;20012;-71
2024/02/21 08:30:20;;;;;;;5.95;1.33;;;;;;;7.16;72.54;99317.19;6202907;22;20035;-71
2024/02/21 08:32:45;;;;;;;4.78;1.45;;;;;;;7.24;72.32;99320.06;6202701;22;20021;-71
2024/02/21 08:35:13;;;;;;;6.15;1.58;;;;;;;7.34;72.58;99324.59;6203559;22;20795;-71
2024/02/21 08:37:38;;;;;;;7.60;1.60;;;;;;;7.30;74.63;99323.97;6228222;22;20014;-71
2024/02/21 08:40:08;;;;;;;7.20;3.00;;;;;;;6.88;71.69;99280.28;6204583;22;20027;-72
2024/02/21 08:42:35;;;;;;;6.55;3.03;;;;;;;7.21;70.21;99334.94;6254297;22;20015;-72
2024/02/21 08:45:01;;;;;;;6.35;2.33;;;;;;;7.24;70.79;99321.81;6232047;22;20038;-69
2024/02/21 08:47:27;;;;;;;6.95;2.88;;;;;;;7.26;72.58;99320.75;6199738;22;20114;-72
2024/02/21 08:49:55;;;;;;;6.13;2.67;;;;;;;7.30;73.53;99321.38;6206144;22;20015;-72
2024/02/21 08:52:23;;;;;;;6.95;2.80;;;;;;;7.26;73.07;99323.34;6228065;22;20022;-70
2024/02/21 08:54:48;;;;;;;5.25;2.03;;;;;;;7.24;71.55;99321.81;6231367;22;20026;-69
2024/02/21 08:57:18;;;;;;;5.78;2.40;;;;;;;7.23;71.60;99317.59;6227951;22;20008;-71
2024/02/21 08:59:47;;;;;;;;;;;;;;;7.29;71.61;99322.34;6230442;22;20138;-70
2024/02/21 09:02:18;;;;;;;5.95;1.67;;;;;;;7.23;69.73;99320.19;6230233;22;19922;-73
2024/02/21 09:04:44;;;;;;;4.80;1.70;;;;;;;7.34;70.55;99322.84;6202155;22;20014;-70
2024/02/21 09:07:10;;;;;;;5.07;1.45;;;;;;;7.32;70.61;99324.72;6205656;22;20509;-70
2024/02/21 09:09:40;;;;;;;8.32;3.53;;;;;;;6.94;71.24;99281.63;6200799;22;20035;-71
2024/02/21 09:12:07;;;;;;;8.32;2.63;;;;;;;7.06;73.15;99322.16;6204346;22;20079;-74
2024/02/21 09:14:42;;;;;;;4.32;1.70;;;;;;;7.19;72.98;99318.72;6230871;22;20011;-70
2024/02/21 09:17:08;;;;;;;4.72;1.50;;;;;;;6.90;74.08;99275.84;6203119;22;20016;-70
2024/02/21 09:19:35;;;;;;;5.03;1.58;;;;;;;7.26;73.97;99328.53;6223286;22;20508;-74
2024/02/21 09:22:00;;;;;;;4.38;1.65;;;;;;;7.18;74.89;99320.47;6198209;22;20043;-74
2024/02/21 09:24:25;;;;;;;4.72;1.80;;;;;;;7.35;74.55;99319.31;6199009;22;20042;-70
2024/02/21 09:26:53;;;;;;;8.30;2.13;;;;;;;7.47;75.41;99318.47;6222463;22;20085;-72
2024/02/21 09:29:19;;;;;;;5.90;2.08;;;;;;;7.56;77.88;99300.66;6229901;22;20105;-72
2024/02/21 09:31:45;;;;;;;5.70;1.70;;;;;;;7.64;76.64;99309.50;6205073;22;20098;-70
2024/02/21 09:34:11;;;;;;;6.22;2.00;;;;;;;7.69;76.15;99306.59;6230519;22;20389;-71
2024/02/21 09:36:36;;;;;;;5.88;2.15;;;;;;;7.66;76.49;99319.75;6204210;22;20043;-69
2024/02/21 09:39:02;;;;;;;5.22;1.98;;;;;;;7.69;77.65;99304.81;6204980;22;20788;-72
2024/02/21 09:41:30;;;;;;;6.15;2.45;;;;;;;7.69;75.76;99304.00;6203106;22;20433;-72
2024/02/21 09:43:55;;;;;;;6.30;2.90;;;;;;;7.71;73.93;99307.31;6206145;22;20019;-71
2024/02/21 09:46:42;;;;;;;8.43;2.60;;;;;;;7.77;73.98;99311.22;6258475;22;20756;-73
2024/02/21 09:49:13;;;;;;;9.80;5.05;;;;;;;7.79;72.25;99314.53;6256040;22;20007;-72
2024/02/21 09:51:42;;;;;;;12.57;7.70;;;;;;;7.74;70.36;99304.50;6226733;22;20049;-70
2024/02/21 09:54:07;;;;;;;7.05;3.45;;;;;;;7.85;67.34;99304.56;6231463;22;20022;-71
2024/02/21 09:56:33;;;;;;;9.20;5.10;;;;;;;7.66;63.22;99266.22;6206127;22;20654;-71
2024/02/21 09:58:59;;;;;;;6.65;3.75;;;;;;;8.05;58.14;99313.47;6205780;22;20046;-73
2024/02/21 10:01:24;;;;;;;7.55;4.00;;;;;;;8.11;55.47;99312.22;6230624;22;20019;-70
2024/02/21 10:03:50;;;;;;;5.82;2.42;;;;;;;8.39;54.15;99315.34;6230371;22;20019;-72
2024/02/21 10:06:17;;;;;;;5.40;2.17;;;;;;;8.21;51.33;99258.78;6230260;22;20004;-72
2024/02/21 10:08:43;;;;;;;5.53;2.20;;;;;;;8.64;50.94;99311.81;6205679;22;20679;-71
2024/02/21 10:11:09;;;;;;;3.97;1.48;;;;;;;8.76;49.49;99307.44;6230515;22;20102;-73
2024/02/21 10:13:35;;;;;;;4.68;1.23;;;;;;;8.88;49.00;99297.94;6230800;22;20007;-70
2024/02/21 10:16:08;;;;;;;5.40;1.85;;;;;;;9.13;49.56;99302.88;6229715;22;20030;-71
2024/02/21 10:18:34;;;;;;;6.35;1.80;;;;;;;9.21;49.40;99299.69;6204085;22;20051;-70
2024/02/21 10:21:10;;;;;;;5.85;1.63;;;;;;;9.25;49.13;99269.94;6223129;22;20046;-70
2024/02/21 10:23:49;;;;;;;6.50;1.60;;;;;;;9.57;51.02;99292.56;6230170;22;20038;-70
2024/02/21 10:26:18;;;;;;;4.97;1.35;;;;;;;9.57;49.51;99282.19;6203979;22;20114;-70
2024/02/21 10:28:47;;;;;;;5.47;1.70;;;;;;;9.66;51.56;99291.84;6231250;22;20073;-71
2024/02/21 10:31:23;;;;;;;8.18;2.22;;;;;;;9.79;52.04;99282.09;6205297;22;20017;-71
2024/02/21 10:33:57;;;;;;;6.43;2.20;;;;;;;9.81;54.15;99284.59;6205187;22;20091;-70
2024/02/21 10:36:24;;;;;;;17.48;8.32;;;;;;;10.10;54.70;99282.22;6203936;22;20011;-72
2024/02/21 10:38:55;;;;;;;25.40;13.57;;;;;;;10.44;54.67;99276.03;6206233;22;20928;-69
2024/02/21 10:41:24;;;;;;;26.95;14.27;;;;;;;10.62;54.39;99264.09;6257526;22;20034;-72
2024/02/21 10:43:56;;;;;;;25.35;14.95;;;;;;;10.83;54.19;99256.28;6231885;22;20003;-72
2024/02/21 10:46:23;;;;;;;32.15;17.25;;;;;;;10.99;53.83;99257.56;6206677;22;20565;-72
2024/02/21 10:49:01;;;;;;;27.48;16.27;;;;;;;11.04;54.53;99252.78;6230022;22;20004;-70
2024/02/21 10:51:32;;;;;;;30.83;17.35;;;;;;;11.23;53.30;99247.66;6226799;22;20011;-72
2024/02/21 10:54:35;;;;;;;30.25;17.17;;;;;;;11.35;53.23;99251.78;6205728;22;20600;-72
2024/02/21 10:57:04;;;;;;;30.55;16.77;;;;;;;11.13;53.18;99190.38;6230294;22;20023;-71
2024/02/21 10:59:31;;;;;;;32.50;17.73;;;;;;;11.42;52.84;99226.03;6204992;22;20624;-69
2024/02/21 11:01:57;;;;;;;30.02;17.30;;;;;;;11.52;53.13;99228.66;6229617;22;20016;-72
2024/02/21 11:04:22;;;;;;;31.67;18.15;;;;;;;11.56;53.46;99224.81;6229926;22;20011;-71
2024/02/21 11:06:48;;;;;;;31.25;19.38;;;;;;;11.39;53.99;99189.84;6203945;22;20589;-70
2024/02/21 11:09:14;;;;;;;32.28;18.27;;;;;;;11.59;54.47;99229.75;6204669;22;20095;-70
2024/02/21 11:11:43;;;;;;;34.53;19.85;;;;;;;11.67;55.04;99232.50;6228496;22;20616;-70
2024/02/21 11:14:21;;;;;;;;;;;;;;;11.68;53.79;99223.72;6204436;22;20004;-68
2024/02/21 11:16:51;;;;;;;34.25;19.63;;;;;;;11.73;54.07;99218.91;6231258;22;19907;-71
2024/02/21 11:19:24;;;;;;;34.20;18.58;;;;;;;11.76;54.13;99214.41;6230541;22;20906;-72
2024/02/21 11:21:51;;;;;;;31.08;17.80;;;;;;;11.95;52.66;99209.19;6205020;22;20004;-70
2024/02/21 11:24:30;;;;;;;35.25;19.92;;;;;;;12.03;53.09;99195.47;6196657;22;20015;-71
2024/02/21 11:27:16;;;;;;;34.55;21.58;;;;;;;12.17;54.06;99191.63;6228810;22;20050;-73
2024/02/21 11:29:58;;;;;;;35.42;20.63;;;;;;;12.04;54.52;99171.88;6228794;22;20030;-71
2024/02/21 11:32:25;;;;;;;34.33;21.00;;;;;;;12.11;55.15;99180.78;6203956;22;20011;-72
2024/02/21 11:35:01;;;;;;;34.15;20.25;;;;;;;12.20;53.76;99178.31;6230068;22;20035;-70
2024/02/21 11:37:28;;;;;;;34.78;21.45;;;;;;;12.43;51.70;99158.75;6229956;22;20014;-70
2024/02/21 11:39:56;;;;;;;34.78;21.42;;;;;;;12.45;53.59;99162.03;6204550;22;20028;-71
2024/02/21 11:42:24;;;;;;;35.05;21.35;;;;;;;12.38;54.09;99155.75;6204963;22;20051;-71